createdAt,value
2019-05-21T00:00:26.417Z,18.80
2019-05-21T00:02:52.586Z,23.20
2019-05-21T00:05:18.831Z,24.15
2019-05-21T00:07:45.044Z,23.97
2019-05-21T00:10:11.483Z,24.95
2019-05-21T00:12:37.764Z,26.02
2019-05-21T00:15:05.036Z,23.22
2019-05-21T00:17:31.327Z,19.97
2019-05-21T00:19:57.576Z,23.52
2019-05-21T00:22:23.751Z,26.50
2019-05-21T00:24:49.982Z,25.82
2019-05-21T00:27:16.406Z,36.30
2019-05-21T00:30:19.922Z,33.07
2019-05-21T00:33:23.243Z,36.60
2019-05-21T00:36:26.755Z,26.33
2019-05-21T00:39:30.241Z,36.68
2019-05-21T00:42:02.852Z,34.85
2019-05-21T00:44:41.148Z,34.92
2019-05-21T00:47:09.033Z,32.67
2019-05-21T00:49:35.211Z,32.30
2019-05-21T00:52:08.212Z,42.37
2019-05-21T00:54:29.555Z,36.93
2019-05-21T00:56:55.725Z,39.30
2019-05-21T00:59:21.941Z,41.87
2019-05-21T01:01:48.110Z,44.20
2019-05-21T01:04:14.290Z,48.43
2019-05-21T01:06:40.942Z,53.42
2019-05-21T01:09:07.674Z,41.93
2019-05-21T01:11:33.861Z,44.50
2019-05-21T01:14:00.046Z,50.23
2019-05-21T01:16:26.522Z,42.50
2019-05-21T01:18:52.818Z,41.70
2019-05-21T01:21:18.989Z,43.23
2019-05-21T01:23:45.155Z,40.15
2019-05-21T01:26:11.401Z,43.70
2019-05-21T01:28:37.610Z,43.63
2019-05-21T01:31:03.823Z,42.10
2019-05-21T01:33:30.022Z,44.10
2019-05-21T01:35:56.193Z,49.88
2019-05-21T01:38:22.401Z,39.67
2019-05-21T01:40:48.576Z,50.40
2019-05-21T01:43:14.839Z,47.38
2019-05-21T01:45:41.001Z,44.27
2019-05-21T01:48:07.367Z,50.20
2019-05-21T01:50:33.666Z,47.08
2019-05-21T01:53:00.091Z,40.07
2019-05-21T01:55:26.237Z,45.55
2019-05-21T01:57:52.489Z,50.15
2019-05-21T02:00:18.775Z,48.17
2019-05-21T02:02:44.959Z,38.23
2019-05-21T02:05:11.451Z,43.63
2019-05-21T02:07:37.856Z,41.10
2019-05-21T02:10:05.963Z,38.98
2019-05-21T02:12:32.264Z,36.35
2019-05-21T02:14:58.536Z,44.83
2019-05-21T02:17:24.826Z,43.03
2019-05-21T02:19:50.995Z,43.90
2019-05-21T02:22:17.393Z,43.55
2019-05-21T02:24:43.586Z,37.10
2019-05-21T02:27:09.755Z,38.80
2019-05-21T02:29:35.932Z,35.53
2019-05-21T02:32:02.236Z,38.43
2019-05-21T02:34:28.498Z,35.60
2019-05-21T02:36:54.922Z,37.50
2019-05-21T02:39:21.114Z,41.83
2019-05-21T02:41:47.359Z,43.47
2019-05-21T02:44:13.623Z,41.53
2019-05-21T02:46:39.776Z,41.95
2019-05-21T02:49:05.970Z,34.10
2019-05-21T02:51:32.368Z,39.35
2019-05-21T02:53:58.585Z,37.03
2019-05-21T02:56:24.879Z,35.40
2019-05-21T02:58:51.063Z,42.23
2019-05-21T03:01:32.040Z,35.67
2019-05-21T03:03:58.286Z,37.70
2019-05-21T03:06:24.501Z,38.37
2019-05-21T03:08:50.746Z,34.73
2019-05-21T03:11:17.113Z,36.68
2019-05-21T03:13:43.319Z,32.63
2019-05-21T03:16:09.473Z,37.97
2019-05-21T03:18:35.676Z,35.60
2019-05-21T03:21:01.854Z,35.10
2019-05-21T03:23:28.069Z,30.43
2019-05-21T03:25:54.398Z,31.30
2019-05-21T03:28:20.799Z,31.12
2019-05-21T03:30:47.095Z,37.13
2019-05-21T03:33:13.441Z,34.63
2019-05-21T03:35:39.745Z,32.17
2019-05-21T03:38:06.040Z,32.67
2019-05-21T03:40:32.362Z,29.67
2019-05-21T03:42:58.706Z,33.88
2019-05-21T03:45:24.925Z,33.48
2019-05-21T03:47:51.464Z,33.17
2019-05-21T03:50:17.733Z,35.40
2019-05-21T03:52:43.907Z,35.63
2019-05-21T03:55:10.826Z,36.20
2019-05-21T03:57:37.072Z,38.00
2019-05-21T04:00:09.647Z,30.27
2019-05-21T04:02:36.157Z,33.13
2019-05-21T04:05:04.608Z,34.00
2019-05-21T04:07:30.864Z,39.08
2019-05-21T04:09:57.206Z,30.57
2019-05-21T04:12:23.390Z,33.97
2019-05-21T04:14:54.432Z,28.47
2019-05-21T04:17:35.039Z,26.55
2019-05-21T04:20:02.429Z,28.23
2019-05-21T04:22:28.736Z,31.37
2019-05-21T04:24:54.998Z,32.98
2019-05-21T04:27:21.301Z,24.72
2019-05-21T04:29:47.488Z,20.60
2019-05-21T04:32:13.697Z,27.45
2019-05-21T04:34:39.967Z,27.67
2019-05-21T04:37:10.763Z,22.47
2019-05-21T04:39:34.657Z,22.13
2019-05-21T04:42:00.925Z,20.77
2019-05-21T04:44:27.157Z,24.63
2019-05-21T04:46:53.547Z,22.67
2019-05-21T04:49:19.949Z,23.12
2019-05-21T04:51:46.729Z,27.32
2019-05-21T04:54:14.168Z,17.82
2019-05-21T04:56:41.000Z,22.80
2019-05-21T04:59:07.788Z,22.13
2019-05-21T05:01:34.293Z,21.97
2019-05-21T05:04:01.028Z,25.43
2019-05-21T05:06:27.554Z,22.00
2019-05-21T05:08:53.891Z,21.57
2019-05-21T05:11:20.420Z,19.12
2019-05-21T05:13:46.852Z,18.17
2019-05-21T05:16:13.214Z,17.87
2019-05-21T05:18:39.688Z,19.35
2019-05-21T05:21:06.049Z,23.43
2019-05-21T05:23:32.448Z,23.97
2019-05-21T05:25:58.852Z,16.67
2019-05-21T05:28:25.291Z,19.12
2019-05-21T05:30:51.772Z,19.30
2019-05-21T05:33:18.160Z,24.10
2019-05-21T05:35:44.842Z,18.75
2019-05-21T05:38:11.422Z,18.45
2019-05-21T05:40:37.736Z,23.85
2019-05-21T05:43:04.159Z,16.50
2019-05-21T05:45:30.816Z,21.17
2019-05-21T05:47:57.088Z,21.40
2019-05-21T05:50:25.425Z,13.32
2019-05-21T05:52:51.937Z,25.17
2019-05-21T05:55:18.633Z,19.17
2019-05-21T05:57:44.973Z,22.70
2019-05-21T06:00:12.608Z,18.93
2019-05-21T06:02:39.081Z,22.48
2019-05-21T06:05:06.451Z,20.20
2019-05-21T06:07:33.201Z,18.82
2019-05-21T06:09:59.808Z,23.52
2019-05-21T06:12:26.180Z,17.77
2019-05-21T06:14:53.100Z,23.67
2019-05-21T06:17:19.694Z,22.77
2019-05-21T06:19:46.176Z,22.65
2019-05-21T06:22:12.962Z,22.23
2019-05-21T06:24:39.715Z,22.17
2019-05-21T06:27:06.166Z,19.33
2019-05-21T06:29:32.963Z,27.02
2019-05-21T06:31:59.230Z,19.23
2019-05-21T06:34:25.710Z,20.07
2019-05-21T06:36:52.108Z,23.65
2019-05-21T06:39:18.607Z,21.73
2019-05-21T06:41:45.112Z,16.37
2019-05-21T06:44:11.591Z,20.33
2019-05-21T06:46:38.171Z,22.27
2019-05-21T06:49:04.875Z,20.20
2019-05-21T06:51:31.273Z,21.68
2019-05-21T06:53:57.724Z,24.23
2019-05-21T06:56:24.317Z,26.77
2019-05-21T06:58:50.991Z,21.67
2019-05-21T07:01:17.507Z,19.02
2019-05-21T07:03:44.228Z,18.48
2019-05-21T07:06:10.922Z,19.48
2019-05-21T07:08:37.394Z,20.87
2019-05-21T07:11:03.975Z,19.30
2019-05-21T07:13:31.126Z,20.07
2019-05-21T07:15:58.033Z,15.73
2019-05-21T07:18:24.649Z,16.87
2019-05-21T07:20:51.112Z,13.37
2019-05-21T07:23:17.577Z,11.37
2019-05-21T07:25:44.091Z,17.20
2019-05-21T07:28:10.742Z,15.72
2019-05-21T07:30:37.260Z,10.28
2019-05-21T07:33:03.981Z,14.03
2019-05-21T07:35:30.606Z,11.35
2019-05-21T07:37:57.178Z,9.98
2019-05-21T07:40:23.643Z,9.63
2019-05-21T07:42:50.528Z,10.68
2019-05-21T07:45:17.327Z,11.03
2019-05-21T07:47:43.784Z,8.20
2019-05-21T07:50:11.094Z,7.28
2019-05-21T07:52:37.654Z,8.68
2019-05-21T07:55:04.702Z,9.80
2019-05-21T07:57:31.321Z,8.00
2019-05-21T07:59:57.597Z,9.53
2019-05-21T08:02:24.247Z,8.70
2019-05-21T08:04:50.854Z,8.73
2019-05-21T08:07:17.222Z,8.33
2019-05-21T08:09:43.611Z,7.83
2019-05-21T08:12:27.893Z,8.30
2019-05-21T08:14:38.419Z,7.20
2019-05-21T08:17:05.293Z,8.13
2019-05-21T08:19:32.358Z,7.10
2019-05-21T08:21:59.041Z,6.07
2019-05-21T08:24:25.417Z,8.23
2019-05-21T08:26:52.271Z,7.43
2019-05-21T08:29:18.872Z,7.60
2019-05-21T08:31:45.235Z,7.50
2019-05-21T08:34:12.091Z,7.80
2019-05-21T08:36:38.804Z,7.50
2019-05-21T08:39:06.488Z,6.23
2019-05-21T08:41:33.114Z,6.90
2019-05-21T08:43:59.311Z,6.77
2019-05-21T08:46:25.640Z,9.80
2019-05-21T08:48:52.407Z,5.28
2019-05-21T08:51:18.961Z,5.67
2019-05-21T08:53:45.525Z,6.47
2019-05-21T08:56:12.149Z,6.50
2019-05-21T08:58:38.824Z,5.87
2019-05-21T09:01:05.285Z,6.27
2019-05-21T09:03:31.807Z,6.85
2019-05-21T09:05:58.755Z,6.20
2019-05-21T09:08:26.441Z,5.35
2019-05-21T09:10:53.963Z,7.83
2019-05-21T09:13:20.697Z,4.37
2019-05-21T09:15:47.152Z,5.65
2019-05-21T09:18:13.626Z,8.73
2019-05-21T09:20:40.449Z,6.87
2019-05-21T09:23:06.990Z,5.97
2019-05-21T09:25:33.481Z,5.33
2019-05-21T09:28:00.173Z,8.30
2019-05-21T09:30:26.683Z,5.42
2019-05-21T09:32:53.130Z,6.03
2019-05-21T09:35:20.467Z,5.87
2019-05-21T09:37:47.121Z,6.50
2019-05-21T09:40:15.274Z,6.87
2019-05-21T09:42:45.213Z,7.67
2019-05-21T09:45:10.864Z,6.73
2019-05-21T09:47:37.429Z,10.50
2019-05-21T09:50:05.517Z,6.65
2019-05-21T09:52:32.227Z,11.10
2019-05-21T09:54:58.618Z,10.43
2019-05-21T09:57:29.947Z,9.97
2019-05-21T10:00:02.058Z,7.63
2019-05-21T10:02:31.143Z,4.97
2019-05-21T10:04:57.592Z,13.27
2019-05-21T10:07:39.379Z,7.05
2019-05-21T10:09:52.324Z,5.37
2019-05-21T10:12:18.820Z,8.95
2019-05-21T10:14:45.053Z,6.72
2019-05-21T10:17:11.657Z,6.58
2019-05-21T10:19:38.246Z,6.12
2019-05-21T10:22:04.738Z,7.97
2019-05-21T10:24:31.098Z,7.00
2019-05-21T10:26:57.347Z,7.83
2019-05-21T10:29:23.787Z,7.75
2019-05-21T10:31:50.419Z,11.10
2019-05-21T10:34:18.060Z,5.78
2019-05-21T10:36:44.645Z,6.87
2019-05-21T10:39:11.336Z,6.35
2019-05-21T10:41:37.652Z,5.80
2019-05-21T10:44:04.718Z,9.40
2019-05-21T10:46:30.963Z,9.88
2019-05-21T10:48:57.329Z,7.97
2019-05-21T10:51:23.892Z,10.03
2019-05-21T10:53:50.604Z,8.08
2019-05-21T10:56:17.050Z,10.08
2019-05-21T10:58:43.373Z,6.53
2019-05-21T11:01:11.944Z,8.73
2019-05-21T11:03:52.599Z,8.55
2019-05-21T11:06:19.138Z,8.78
2019-05-21T11:08:45.497Z,7.75
2019-05-21T11:11:11.920Z,8.97
2019-05-21T11:13:39.663Z,7.20
2019-05-21T11:16:06.436Z,12.70
2019-05-21T11:18:33.017Z,7.10
2019-05-21T11:20:59.431Z,9.00
2019-05-21T11:23:25.838Z,5.83
2019-05-21T11:25:52.502Z,6.47
2019-05-21T11:28:18.768Z,8.43
2019-05-21T11:30:45.351Z,8.77
2019-05-21T11:33:11.743Z,8.03
2019-05-21T11:35:38.503Z,7.22
2019-05-21T11:38:04.992Z,5.97
2019-05-21T11:40:31.673Z,7.47
2019-05-21T11:42:58.665Z,8.45
2019-05-21T11:45:32.114Z,7.87
2019-05-21T11:47:54.697Z,6.47
2019-05-21T11:50:21.385Z,7.12
2019-05-21T11:52:47.846Z,6.97
2019-05-21T11:55:15.268Z,9.58
2019-05-21T11:57:41.881Z,11.57
2019-05-21T12:00:09.419Z,8.25
2019-05-21T12:02:37.048Z,8.00
2019-05-21T12:05:05.077Z,11.70
2019-05-21T12:07:31.346Z,9.40
2019-05-21T12:09:57.678Z,7.15
2019-05-21T12:12:24.517Z,6.90
2019-05-21T12:14:51.062Z,7.25
2019-05-21T12:17:17.476Z,12.88
2019-05-21T12:19:43.771Z,7.30
2019-05-21T12:22:10.364Z,7.00
2019-05-21T12:24:37.137Z,7.60
2019-05-21T12:27:03.684Z,7.65
2019-05-21T12:29:33.503Z,8.18
2019-05-21T12:31:58.620Z,12.20
2019-05-21T12:34:24.947Z,9.15
2019-05-21T12:36:51.760Z,7.62
2019-05-21T12:39:18.562Z,8.38
2019-05-21T12:41:45.023Z,12.68
2019-05-21T12:44:11.522Z,6.87
2019-05-21T12:46:38.298Z,7.75
2019-05-21T12:49:05.039Z,7.70
2019-05-21T12:51:31.208Z,6.55
2019-05-21T12:53:57.543Z,16.00
2019-05-21T12:56:23.886Z,8.40
2019-05-21T12:58:50.547Z,8.10
2019-05-21T13:01:16.909Z,9.53
2019-05-21T13:03:43.119Z,8.60
2019-05-21T13:06:09.314Z,8.73
2019-05-21T13:08:36.089Z,8.93
2019-05-21T13:11:02.344Z,11.50
2019-05-21T13:13:28.694Z,8.03
2019-05-21T13:15:54.986Z,8.20
2019-05-21T13:18:21.745Z,8.05
2019-05-21T13:20:48.053Z,5.75
2019-05-21T13:23:14.713Z,9.08
2019-05-21T13:25:42.771Z,7.00
2019-05-21T13:28:09.017Z,8.20
2019-05-21T13:30:35.672Z,7.55
2019-05-21T13:33:02.642Z,6.55
2019-05-21T13:35:29.242Z,7.95
2019-05-21T13:37:55.751Z,6.47
2019-05-21T13:40:22.725Z,12.07
2019-05-21T13:42:49.333Z,9.95
2019-05-21T13:45:15.985Z,8.68
2019-05-21T13:47:42.752Z,8.08
2019-05-21T13:50:09.710Z,11.00
2019-05-21T13:52:36.258Z,10.40
2019-05-21T13:55:06.264Z,7.62
2019-05-21T13:57:33.142Z,7.45
2019-05-21T13:59:59.596Z,7.20
2019-05-21T14:02:26.371Z,6.67
2019-05-21T14:04:53.009Z,7.58
2019-05-21T14:07:19.662Z,7.25
2019-05-21T14:09:46.345Z,9.58
2019-05-21T14:12:13.882Z,10.82
2019-05-21T14:14:40.483Z,16.15
2019-05-21T14:17:08.672Z,8.55
2019-05-21T14:19:35.718Z,7.50
2019-05-21T14:22:02.445Z,10.32
2019-05-21T14:24:29.319Z,10.03
2019-05-21T14:26:55.862Z,10.30
2019-05-21T14:29:22.327Z,11.05
2019-05-21T14:31:48.982Z,10.00
2019-05-21T14:34:15.633Z,13.32
2019-05-21T14:36:42.206Z,10.25
2019-05-21T14:39:13.232Z,8.18
2019-05-21T14:41:39.566Z,9.55
2019-05-21T14:44:05.856Z,14.28
2019-05-21T14:46:32.580Z,9.18
2019-05-21T14:48:58.977Z,8.83
2019-05-21T14:51:25.201Z,9.68
2019-05-21T14:53:53.328Z,9.68
2019-05-21T14:56:19.576Z,8.88
2019-05-21T14:58:46.021Z,11.05
2019-05-21T15:01:12.533Z,9.65
2019-05-21T15:03:39.045Z,9.13
2019-05-21T15:06:05.278Z,7.87
2019-05-21T15:08:32.053Z,11.12
2019-05-21T15:10:58.702Z,10.90
2019-05-21T15:13:25.023Z,7.83
2019-05-21T15:15:51.280Z,11.68
2019-05-21T15:18:22.130Z,11.03
2019-05-21T15:20:47.735Z,11.05
2019-05-21T15:23:14.563Z,9.25
2019-05-21T15:25:41.026Z,8.83
2019-05-21T15:28:07.310Z,10.25
2019-05-21T15:30:33.837Z,12.20
2019-05-21T15:33:00.358Z,12.65
2019-05-21T15:35:26.929Z,11.30
2019-05-21T15:37:53.226Z,11.93
2019-05-21T15:40:20.438Z,14.80
2019-05-21T15:42:51.938Z,12.70
2019-05-21T15:45:15.294Z,9.98
2019-05-21T15:47:42.243Z,10.93
2019-05-21T15:50:09.189Z,9.03
2019-05-21T15:52:35.440Z,9.15
2019-05-21T15:55:06.767Z,10.55
2019-05-21T15:57:31.164Z,12.68
2019-05-21T15:59:57.402Z,14.93
2019-05-21T16:02:23.712Z,14.40
2019-05-21T16:04:50.207Z,12.33
2019-05-21T16:07:16.825Z,11.65
2019-05-21T16:09:43.471Z,13.20
2019-05-21T16:12:09.790Z,11.00
2019-05-21T16:14:36.106Z,11.20
2019-05-21T16:17:02.413Z,15.80
2019-05-21T16:19:28.790Z,12.00
2019-05-21T16:21:54.984Z,11.88
2019-05-21T16:24:21.335Z,13.53
2019-05-21T16:26:47.713Z,12.60
2019-05-21T16:29:14.212Z,14.83
2019-05-21T16:31:40.674Z,12.50
2019-05-21T16:34:06.972Z,12.35
2019-05-21T16:36:33.565Z,14.03
2019-05-21T16:39:00.022Z,12.85
2019-05-21T16:41:27.039Z,17.62
2019-05-21T16:43:53.449Z,18.80
2019-05-21T16:46:20.275Z,15.20
2019-05-21T16:48:47.471Z,15.75
2019-05-21T16:51:14.155Z,12.98
2019-05-21T16:53:40.732Z,30.45
2019-05-21T16:56:07.226Z,15.90
2019-05-21T16:58:33.691Z,22.35
2019-05-21T17:01:00.923Z,18.92
2019-05-21T17:03:27.279Z,15.40
2019-05-21T17:05:53.742Z,14.35
2019-05-21T17:08:20.022Z,14.75
2019-05-21T17:10:46.609Z,14.47
2019-05-21T17:13:13.022Z,13.60
2019-05-21T17:15:39.563Z,14.58
2019-05-21T17:18:06.474Z,12.60
2019-05-21T17:20:34.249Z,17.90
2019-05-21T17:23:01.003Z,16.75
2019-05-21T17:25:27.250Z,13.18
2019-05-21T17:27:53.720Z,16.62
2019-05-21T17:30:20.262Z,16.95
2019-05-21T17:32:46.643Z,14.68
2019-05-21T17:35:13.149Z,16.07
2019-05-21T17:37:39.501Z,14.40
2019-05-21T17:40:06.520Z,12.68
2019-05-21T17:42:33.167Z,14.35
2019-05-21T17:44:59.507Z,14.30
2019-05-21T17:47:25.919Z,14.05
2019-05-21T17:49:52.335Z,15.20
2019-05-21T17:52:18.577Z,17.37
2019-05-21T17:54:56.140Z,13.53
2019-05-21T17:57:13.013Z,15.53
2019-05-21T17:59:39.846Z,19.23
2019-05-21T18:02:08.227Z,15.63
2019-05-21T18:04:35.430Z,12.58
2019-05-21T18:07:02.601Z,21.25
2019-05-21T18:09:29.330Z,16.25
2019-05-21T18:11:55.923Z,15.30
2019-05-21T18:14:22.500Z,18.92
2019-05-21T18:16:49.089Z,17.80
2019-05-21T18:19:15.868Z,18.25
2019-05-21T18:21:42.170Z,20.95
2019-05-21T18:24:09.205Z,15.55
2019-05-21T18:26:35.981Z,23.75
2019-05-21T18:29:02.334Z,18.57
2019-05-21T18:31:28.624Z,18.50
2019-05-21T18:33:55.208Z,18.95
2019-05-21T18:36:21.897Z,19.60
2019-05-21T18:38:48.164Z,18.05
2019-05-21T18:41:15.022Z,16.42
2019-05-21T18:43:41.622Z,24.00
2019-05-21T18:46:08.038Z,21.12
2019-05-21T18:48:34.445Z,25.43
2019-05-21T18:51:01.012Z,22.82
2019-05-21T18:53:27.483Z,22.00
2019-05-21T18:55:53.973Z,17.92
2019-05-21T18:58:20.202Z,17.62
2019-05-21T19:00:46.672Z,21.82
2019-05-21T19:03:13.552Z,20.25
2019-05-21T19:05:40.157Z,17.62
2019-05-21T19:08:06.596Z,23.45
2019-05-21T19:10:32.927Z,20.68
2019-05-21T19:13:01.092Z,20.00
2019-05-21T19:15:28.106Z,25.32
2019-05-21T19:17:54.517Z,20.80
2019-05-21T19:20:22.138Z,21.53
2019-05-21T19:22:48.506Z,17.95
2019-05-21T19:25:15.394Z,27.15
2019-05-21T19:27:41.900Z,31.17
2019-05-21T19:30:09.514Z,23.35
2019-05-21T19:32:35.924Z,24.35
2019-05-21T19:35:05.847Z,24.45
2019-05-21T19:37:32.204Z,20.50
2019-05-21T19:39:58.382Z,23.60
2019-05-21T19:42:24.873Z,30.52
2019-05-21T19:44:51.263Z,24.00
2019-05-21T19:47:17.454Z,19.73
2019-05-21T19:49:43.670Z,25.10
2019-05-21T19:52:09.988Z,23.95
2019-05-21T19:54:36.176Z,23.32
2019-05-21T19:57:03.093Z,22.37
2019-05-21T19:59:29.364Z,22.42
2019-05-21T20:01:56.322Z,22.75
2019-05-21T20:04:23.185Z,24.40
2019-05-21T20:06:49.746Z,25.90
2019-05-21T20:09:16.872Z,26.70
2019-05-21T20:11:43.437Z,29.80
2019-05-21T20:14:09.648Z,25.23
2019-05-21T20:16:37.131Z,30.02
2019-05-21T20:19:04.482Z,36.07
2019-05-21T20:21:31.467Z,24.03
2019-05-21T20:23:57.833Z,24.23
2019-05-21T20:26:26.362Z,22.62
2019-05-21T20:28:53.410Z,25.97
2019-05-21T20:31:20.748Z,26.68
2019-05-21T20:33:49.309Z,23.87
2019-05-21T20:36:15.761Z,31.42
2019-05-21T20:38:42.882Z,24.55
2019-05-21T20:41:09.962Z,31.05
2019-05-21T20:43:36.732Z,23.85
2019-05-21T20:46:04.699Z,27.62
2019-05-21T20:48:33.173Z,22.03
2019-05-21T20:50:59.884Z,23.92
2019-05-21T20:53:26.300Z,21.65
2019-05-21T20:55:52.682Z,25.43
2019-05-21T20:58:19.519Z,26.70
2019-05-21T21:00:48.039Z,27.00
2019-05-21T21:03:14.453Z,19.85
2019-05-21T21:05:40.791Z,19.10
2019-05-21T21:08:08.067Z,30.40
2019-05-21T21:10:34.723Z,22.90
2019-05-21T21:13:01.662Z,32.40
2019-05-21T21:15:28.084Z,24.90
2019-05-21T21:17:54.443Z,30.83
2019-05-21T21:20:20.843Z,31.00
2019-05-21T21:22:47.370Z,38.77
2019-05-21T21:25:19.417Z,32.45
2019-05-21T21:27:45.976Z,31.10
2019-05-21T21:30:12.726Z,36.43
2019-05-21T21:32:39.249Z,34.98
2019-05-21T21:35:05.958Z,28.53
2019-05-21T21:37:33.053Z,36.03
2019-05-21T21:39:59.540Z,30.40
2019-05-21T21:42:25.734Z,36.10
2019-05-21T21:44:52.392Z,37.78
2019-05-21T21:47:18.949Z,37.85
2019-05-21T21:49:45.901Z,34.43
2019-05-21T21:52:14.136Z,32.27
2019-05-21T21:54:41.868Z,40.65
2019-05-21T21:57:08.248Z,36.40
2019-05-21T21:59:34.678Z,35.90
2019-05-21T22:02:25.994Z,37.27
2019-05-21T22:04:53.958Z,32.50
2019-05-21T22:07:22.080Z,35.57
2019-05-21T22:09:48.245Z,32.67
2019-05-21T22:12:16.363Z,37.53
2019-05-21T22:14:51.821Z,28.27
2019-05-21T22:17:12.889Z,24.97
2019-05-21T22:19:39.651Z,31.20
2019-05-21T22:22:06.564Z,25.03
2019-05-21T22:24:32.867Z,32.63
2019-05-21T22:26:59.097Z,22.90
2019-05-21T22:29:25.486Z,24.00
2019-05-21T22:31:51.942Z,23.38
2019-05-21T22:34:18.422Z,24.33
2019-05-21T22:36:44.822Z,28.30
2019-05-21T22:39:18.656Z,22.97
2019-05-21T22:41:44.934Z,23.57
2019-05-21T22:44:11.663Z,27.77
2019-05-21T22:46:37.844Z,29.18
2019-05-21T22:49:04.123Z,24.40
2019-05-21T22:51:30.336Z,31.47
2019-05-21T22:53:56.593Z,26.70
2019-05-21T22:56:22.781Z,27.53
2019-05-21T22:58:49.010Z,24.97
2019-05-21T23:01:15.798Z,27.07
2019-05-21T23:03:42.580Z,32.27
2019-05-21T23:06:09.166Z,29.20
2019-05-21T23:08:36.016Z,25.67
2019-05-21T23:11:02.217Z,26.23
2019-05-21T23:13:28.477Z,26.17
2019-05-21T23:15:55.748Z,19.62
2019-05-21T23:18:22.173Z,26.53
2019-05-21T23:20:48.994Z,23.80
2019-05-21T23:23:15.555Z,24.40
2019-05-21T23:25:42.987Z,16.07
2019-05-21T23:28:09.343Z,20.20
2019-05-21T23:30:35.540Z,23.00
2019-05-21T23:33:03.357Z,28.57
2019-05-21T23:35:29.753Z,30.67
2019-05-21T23:37:55.928Z,31.60
2019-05-21T23:40:23.733Z,28.93
2019-05-21T23:42:49.982Z,23.50
2019-05-21T23:45:16.767Z,27.33
2019-05-21T23:47:43.568Z,27.33
2019-05-21T23:50:12.385Z,22.13
2019-05-21T23:52:39.658Z,21.30
2019-05-21T23:55:06.884Z,20.47
2019-05-21T23:57:35.817Z,28.27
